Time;durP1;ratioP1;P1;durP2;ratioP2;P2;SDS_P1;SDS_P2;PMS_P1;PMS_P2;Temp;Humidity;BMP_temperature;BMP_pressure;BME280_temperature;BME280_humidity;BME280_pressure;Samples;Min_cycle;Max_cycle;Signal;HPM_P1;HPM_P2
2022/05/14 00:00:50;;;;;;;24.40;7.60;;;21.80;75.70;;;;;;5024688;28;20029;-62
2022/05/14 00:03:16;;;;;;;19.60;7.57;;;21.80;75.80;;;;;;5027328;28;20033;-62
2022/05/14 00:05:42;;;;;;;21.42;7.40;;;21.70;75.80;;;;;;5040451;28;20013;-62
2022/05/14 00:08:08;;;;;;;22.42;7.60;;;21.70;75.80;;;;;;5041431;28;20040;-62
2022/05/14 00:13:03;;;;;;;31.08;8.98;;;21.80;75.90;;;;;;5026708;28;20155;-62
2022/05/14 00:13:19;;;;;;;23.80;9.38;;;21.70;75.90;;;;;;5040968;28;20465;-63
2022/05/14 00:15:44;;;;;;;29.52;9.85;;;21.70;76.00;;;;;;5042665;28;20166;-62
2022/05/14 00:18:10;;;;;;;27.77;9.77;;;21.70;76.10;;;;;;5043407;28;20086;-61
2022/05/14 00:20:36;;;;;;;23.45;9.32;;;21.70;76.10;;;;;;5010306;28;20033;-62
2022/05/14 00:23:02;;;;;;;23.00;9.43;;;21.70;76.20;;;;;;5026992;28;20025;-62
2022/05/14 00:25:28;;;;;;;26.67;9.40;;;21.60;76.10;;;;;;5040765;28;20009;-62
2022/05/14 00:27:53;;;;;;;28.60;9.93;;;21.60;76.20;;;;;;5039359;28;20040;-63
2022/05/14 00:30:20;;;;;;;19.52;9.85;;;21.60;76.30;;;;;;5039100;28;20293;-63
2022/05/14 00:32:47;;;;;;;24.95;8.95;;;21.60;76.30;;;;;;5041406;28;20039;-62
2022/05/14 00:35:12;;;;;;;22.67;9.52;;;21.60;76.40;;;;;;5010890;28;20040;-62
2022/05/14 00:37:38;;;;;;;24.35;9.35;;;21.60;76.50;;;;;;5040783;28;20449;-61
2022/05/14 00:40:05;;;;;;;22.92;9.40;;;21.50;76.50;;;;;;5039808;28;20064;-63
2022/05/14 00:42:31;;;;;;;28.17;9.35;;;21.50;76.60;;;;;;5025270;28;20021;-62
2022/05/14 00:44:57;;;;;;;22.58;9.73;;;21.50;76.70;;;;;;5041218;28;20036;-62
2022/05/14 00:47:23;;;;;;;23.27;10.05;;;21.50;76.70;;;;;;5024137;28;20025;-62
2022/05/14 00:49:48;;;;;;;20.98;9.50;;;21.50;76.70;;;;;;5023105;28;20025;-62
2022/05/14 00:52:16;;;;;;;21.27;10.43;;;21.50;76.80;;;;;;5033752;28;21140;-62
2022/05/14 00:54:50;;;;;;;24.17;9.55;;;21.50;76.90;;;;;;5040027;28;20021;-63
2022/05/14 00:57:18;;;;;;;24.08;8.82;;;21.50;76.90;;;;;;5039435;28;20051;-62
2022/05/14 00:59:43;;;;;;;21.92;9.45;;;21.50;77.00;;;;;;5023746;28;20387;-62
2022/05/14 01:02:09;;;;;;;22.58;9.07;;;21.40;77.00;;;;;;5039294;28;20036;-62
2022/05/14 01:04:34;;;;;;;25.27;9.48;;;21.40;77.00;;;;;;5039023;28;20021;-62
2022/05/14 01:07:11;;;;;;;20.50;9.02;;;21.40;77.10;;;;;;5020146;28;20413;-62
2022/05/14 01:09:38;;;;;;;34.92;9.73;;;21.40;77.20;;;;;;5022599;28;20017;-62
2022/05/14 01:12:04;;;;;;;22.98;9.02;;;21.40;77.20;;;;;;5020828;28;20033;-62
2022/05/14 01:14:29;;;;;;;18.55;9.30;;;21.40;77.30;;;;;;5042197;28;20392;-63
2022/05/14 01:16:55;;;;;;;19.45;8.85;;;21.30;77.30;;;;;;5025049;28;20507;-62
2022/05/14 01:19:20;;;;;;;25.70;8.68;;;21.30;77.30;;;;;;5040897;28;20037;-61
2022/05/14 01:21:59;;;;;;;21.42;8.73;;;21.30;77.40;;;;;;5042628;28;20480;-62
2022/05/14 01:27:34;;;;;;;17.83;8.57;;;21.30;77.40;;;;;;5039625;28;20052;-62
2022/05/14 01:29:59;;;;;;;23.00;9.40;;;21.20;77.40;;;;;;5038896;28;20536;-62
2022/05/14 01:32:25;;;;;;;23.17;8.70;;;21.20;77.50;;;;;;5039524;28;20033;-61
2022/05/14 01:34:50;;;;;;;24.02;8.77;;;21.20;77.60;;;;;;5038506;28;20041;-62
2022/05/14 01:37:20;;;;;;;24.15;9.43;;;21.20;77.70;;;;;;5041956;28;20036;-62
2022/05/14 01:39:46;;;;;;;17.60;8.48;;;21.20;77.70;;;;;;5025770;28;20036;-63
2022/05/14 01:42:11;;;;;;;15.68;8.70;;;21.20;77.80;;;;;;5038983;28;20033;-62
2022/05/14 01:44:37;;;;;;;17.50;9.75;;;21.20;77.80;;;;;;5040742;28;20037;-63
2022/05/14 01:47:03;;;;;;;21.98;9.07;;;21.20;77.80;;;;;;5040240;28;20033;-62
2022/05/14 01:49:28;;;;;;;15.95;8.98;;;21.20;77.80;;;;;;5041828;28;20378;-61
2022/05/14 01:51:54;;;;;;;18.52;9.02;;;21.10;77.80;;;;;;5040741;28;20028;-62
2022/05/14 01:54:20;;;;;;;19.77;8.65;;;21.10;77.80;;;;;;5040772;28;20101;-63
2022/05/14 01:56:45;;;;;;;23.75;9.18;;;21.10;77.80;;;;;;5041216;28;20417;-63
2022/05/14 01:59:11;;;;;;;25.23;9.70;;;21.10;77.80;;;;;;5038618;28;20024;-62
2022/05/14 02:01:37;;;;;;;21.67;9.02;;;21.10;77.90;;;;;;5041494;28;20108;-61
2022/05/14 02:04:05;;;;;;;26.65;9.57;;;21.10;78.00;;;;;;5041171;28;20115;-62
2022/05/14 02:06:31;;;;;;;17.58;8.85;;;21.10;77.90;;;;;;5025137;28;20021;-62
2022/05/14 02:08:57;;;;;;;18.48;8.68;;;21.10;78.00;;;;;;5021742;28;20036;-61
2022/05/14 02:11:23;;;;;;;20.02;8.63;;;21.00;77.90;;;;;;5021096;28;20396;-63
2022/05/14 02:13:49;;;;;;;23.27;8.70;;;21.10;78.00;;;;;;5007851;28;20519;-64
2022/05/14 02:16:15;;;;;;;18.42;8.80;;;21.00;78.00;;;;;;5040299;28;20652;-63
2022/05/14 02:18:40;;;;;;;22.63;8.52;;;21.00;77.80;;;;;;5037584;28;20052;-64
2022/05/14 02:21:06;;;;;;;16.63;8.50;;;21.00;77.90;;;;;;5020779;28;20041;-63
2022/05/14 02:23:32;;;;;;;26.42;8.80;;;21.00;78.00;;;;;;5039960;28;20227;-64
2022/05/14 02:25:58;;;;;;;19.65;8.43;;;21.00;78.10;;;;;;5040415;28;20469;-62
2022/05/14 02:28:23;;;;;;;19.58;8.48;;;21.00;78.00;;;;;;5039734;28;20029;-61
2022/05/14 02:30:49;;;;;;;14.73;7.20;;;21.00;78.00;;;;;;5040182;28;20024;-63
2022/05/14 02:33:14;;;;;;;13.73;8.23;;;21.00;78.10;;;;;;5039600;28;20045;-62
2022/05/14 02:35:40;;;;;;;17.77;8.02;;;21.00;78.20;;;;;;5037764;28;20384;-61
2022/05/14 02:38:06;;;;;;;19.35;7.60;;;20.90;78.00;;;;;;5038566;28;20060;-63
2022/05/14 02:40:31;;;;;;;15.90;8.00;;;20.90;78.10;;;;;;5038210;28;20099;-63
2022/05/14 02:42:57;;;;;;;16.50;8.30;;;20.90;78.10;;;;;;5040742;28;20497;-61
2022/05/14 02:45:22;;;;;;;15.70;7.53;;;20.90;78.10;;;;;;5040955;28;20564;-63
2022/05/14 02:47:48;;;;;;;14.32;7.40;;;20.90;78.20;;;;;;5038987;28;20029;-62
2022/05/14 02:50:14;;;;;;;13.57;7.28;;;20.90;78.20;;;;;;5022665;28;20033;-62
2022/05/14 02:52:39;;;;;;;20.65;8.43;;;20.80;78.20;;;;;;5038974;28;20112;-62
2022/05/14 02:55:06;;;;;;;13.10;7.38;;;20.90;78.30;;;;;;5041623;28;20033;-62
2022/05/14 02:57:32;;;;;;;16.52;7.40;;;20.80;78.30;;;;;;5024392;28;20025;-62
2022/05/14 02:59:57;;;;;;;10.95;6.55;;;20.80;78.30;;;;;;5041157;28;20591;-61
2022/05/14 03:02:23;;;;;;;13.55;7.25;;;20.80;78.30;;;;;;5020452;28;20037;-62
2022/05/14 03:04:48;;;;;;;16.92;6.78;;;20.80;78.40;;;;;;5040325;28;20025;-63
2022/05/14 03:07:15;;;;;;;12.35;7.05;;;20.80;78.40;;;;;;5041547;28;20021;-62
2022/05/14 03:09:41;;;;;;;18.40;7.15;;;20.80;78.50;;;;;;5023760;28;20464;-61
2022/05/14 03:12:07;;;;;;;12.02;6.40;;;20.80;78.50;;;;;;5023018;28;20040;-63
2022/05/14 03:14:33;;;;;;;16.42;7.35;;;20.80;78.50;;;;;;5038258;28;20577;-63
2022/05/14 03:16:59;;;;;;;12.20;6.88;;;20.70;78.40;;;;;;5037160;28;20456;-62
2022/05/14 03:19:24;;;;;;;17.05;6.45;;;20.70;78.60;;;;;;5041335;28;20091;-62
2022/05/14 03:21:50;;;;;;;14.95;6.60;;;20.70;78.60;;;;;;5037498;28;20035;-61
2022/05/14 03:24:15;;;;;;;23.50;7.28;;;20.70;78.60;;;;;;5022843;28;20362;-62
2022/05/14 03:26:41;;;;;;;14.93;7.40;;;20.70;78.60;;;;;;5039344;28;20025;-62
2022/05/14 03:29:07;;;;;;;19.67;8.23;;;20.70;78.70;;;;;;5019337;28;20040;-63
2022/05/14 03:31:33;;;;;;;16.42;7.07;;;20.70;78.80;;;;;;5020529;28;20037;-61
2022/05/14 03:33:58;;;;;;;11.43;6.60;;;20.60;78.80;;;;;;5038590;28;20055;-61
2022/05/14 03:36:24;;;;;;;16.60;6.45;;;20.60;78.80;;;;;;5021208;28;20056;-62
2022/05/14 03:38:50;;;;;;;15.90;7.15;;;20.60;78.90;;;;;;5023339;28;20029;-63
2022/05/14 03:41:16;;;;;;;19.08;7.07;;;20.60;78.90;;;;;;5005622;28;20036;-61
2022/05/14 03:43:44;;;;;;;14.95;7.60;;;20.60;79.00;;;;;;5038546;28;20061;-62
2022/05/14 03:46:10;;;;;;;12.95;6.15;;;20.60;79.00;;;;;;5039877;28;20120;-62
2022/05/14 03:48:36;;;;;;;16.60;6.70;;;20.60;79.00;;;;;;5021250;28;20111;-62
2022/05/14 03:51:02;;;;;;;12.65;6.05;;;20.60;79.20;;;;;;5019375;28;20817;-63
2022/05/14 03:53:29;;;;;;;11.23;6.22;;;20.60;79.20;;;;;;5040716;28;20090;-62
2022/05/14 03:55:54;;;;;;;16.15;5.97;;;20.30;79.10;;;;;;5032620;28;20069;-62
2022/05/14 03:58:20;;;;;;;12.75;6.13;;;20.50;79.20;;;;;;5035867;28;20585;-62
2022/05/14 04:00:45;;;;;;;12.18;5.97;;;20.50;79.30;;;;;;5033412;28;20052;-62
2022/05/14 04:03:11;;;;;;;14.30;6.03;;;20.50;79.30;;;;;;5039034;28;20029;-61
2022/05/14 04:05:37;;;;;;;14.68;5.80;;;20.50;79.30;;;;;;5036640;28;20017;-63
2022/05/14 04:08:02;;;;;;;13.30;5.90;;;20.50;79.30;;;;;;5039289;28;20302;-62
2022/05/14 04:10:29;;;;;;;10.95;6.15;;;20.40;79.30;;;;;;5037159;28;20036;-62
2022/05/14 04:12:55;;;;;;;11.73;6.05;;;20.40;79.40;;;;;;5038513;28;20021;-61
2022/05/14 04:15:23;;;;;;;8.65;5.65;;;20.40;79.40;;;;;;5035807;28;20037;-62
2022/05/14 04:17:50;;;;;;;15.60;6.07;;;20.40;79.50;;;;;;5038714;28;20119;-62
2022/05/14 04:20:15;;;;;;;19.38;6.80;;;20.40;79.60;;;;;;5036804;28;20021;-62
2022/05/14 04:22:41;;;;;;;12.55;6.20;;;20.40;79.60;;;;;;5036042;28;20078;-62
2022/05/14 04:25:06;;;;;;;15.07;6.57;;;20.40;79.70;;;;;;5034750;28;20032;-63
2022/05/14 04:27:32;;;;;;;12.68;6.10;;;20.40;79.60;;;;;;5038703;28;20027;-63
2022/05/14 04:29:58;;;;;;;15.05;6.32;;;20.40;79.50;;;;;;5017168;28;20033;-62
2022/05/14 04:32:24;;;;;;;14.30;6.68;;;20.40;79.60;;;;;;5035618;28;20034;-62
2022/05/14 04:34:49;;;;;;;14.63;6.18;;;20.40;79.70;;;;;;5037918;28;20040;-63
2022/05/14 04:37:15;;;;;;;15.23;6.22;;;20.40;79.70;;;;;;5039819;28;20036;-62
2022/05/14 04:39:40;;;;;;;13.65;6.45;;;20.40;79.70;;;;;;5035061;28;20020;-62
2022/05/14 04:42:07;;;;;;;11.60;6.15;;;20.40;79.70;;;;;;5038148;28;20033;-62
2022/05/14 04:44:33;;;;;;;9.60;5.65;;;20.40;80.40;;;;;;5006200;28;20480;-62
2022/05/14 04:46:58;;;;;;;15.20;6.63;;;20.30;79.70;;;;;;5026940;28;20361;-62
2022/05/14 04:49:24;;;;;;;12.80;5.88;;;20.30;79.60;;;;;;5024546;28;20036;-62
2022/05/14 04:51:49;;;;;;;13.95;6.47;;;20.30;79.70;;;;;;5041434;28;20241;-61
2022/05/14 04:54:15;;;;;;;12.93;6.15;;;20.30;79.70;;;;;;5041661;28;20158;-63
2022/05/14 04:56:41;;;;;;;13.00;6.13;;;20.30;79.60;;;;;;5040215;28;20366;-62
2022/05/14 04:59:07;;;;;;;10.52;5.78;;;20.20;79.60;;;;;;5038444;28;20025;-62
2022/05/14 05:01:32;;;;;;;9.02;5.47;;;20.30;79.70;;;;;;5039526;28;20040;-62
2022/05/14 05:03:58;;;;;;;11.68;5.68;;;20.20;79.70;;;;;;5039514;28;20032;-62
2022/05/14 05:06:24;;;;;;;13.00;5.82;;;20.30;79.80;;;;;;5040536;28;20120;-63
2022/05/14 05:08:51;;;;;;;11.60;5.78;;;20.20;79.70;;;;;;5040741;28;20049;-62
2022/05/14 05:11:23;;;;;;;8.68;5.93;;;20.20;79.70;;;;;;5006634;28;20029;-61
2022/05/14 05:13:48;;;;;;;40.63;9.02;;;20.20;79.70;;;;;;5037515;28;20042;-62
2022/05/14 05:16:14;;;;;;;103.85;16.85;;;20.20;79.70;;;;;;5023724;28;20199;-62
2022/05/14 05:18:39;;;;;;;105.28;16.38;;;20.20;79.70;;;;;;5040811;28;20138;-62
2022/05/14 05:21:06;;;;;;;54.40;11.10;;;20.20;79.70;;;;;;5042941;28;20055;-63
2022/05/14 05:23:32;;;;;;;45.60;9.82;;;20.20;79.60;;;;;;5009513;28;20521;-62
2022/05/14 05:25:58;;;;;;;39.42;8.43;;;20.00;79.40;;;;;;5041507;28;20037;-63
2022/05/14 05:28:24;;;;;;;37.67;8.32;;;20.20;79.50;;;;;;5020765;28;20022;-62
2022/05/14 05:30:49;;;;;;;39.58;8.23;;;20.20;79.40;;;;;;5040561;28;20037;-62
2022/05/14 05:33:17;;;;;;;34.88;8.07;;;20.20;79.30;;;;;;5039436;28;20055;-62
2022/05/14 05:35:43;;;;;;;35.00;7.78;;;20.20;79.30;;;;;;5024045;28;20103;-62
2022/05/14 05:38:09;;;;;;;26.67;8.20;;;20.20;79.30;;;;;;5039466;28;20029;-62
2022/05/14 05:40:34;;;;;;;28.70;6.97;;;20.20;79.20;;;;;;5040330;28;20119;-63
2022/05/14 05:43:00;;;;;;;27.65;7.60;;;20.20;79.10;;;;;;5038875;28;20090;-62
2022/05/14 05:45:25;;;;;;;21.98;6.47;;;20.20;79.10;;;;;;5041628;28;20037;-62
2022/05/14 05:47:51;;;;;;;30.75;7.20;;;20.20;79.10;;;;;;5024308;28;20028;-63
2022/05/14 05:50:16;;;;;;;21.13;7.00;;;20.20;79.10;;;;;;5023016;28;20090;-63
2022/05/14 05:52:42;;;;;;;24.48;7.35;;;20.10;79.00;;;;;;5036881;28;20124;-63
2022/05/14 05:57:52;;;;;;;25.17;6.65;;;20.10;78.80;;;;;;5038851;28;20036;-63
2022/05/14 06:00:20;;;;;;;30.38;6.80;;;20.20;78.80;;;;;;5037920;28;20028;-62
2022/05/14 06:02:46;;;;;;;24.58;6.35;;;20.20;78.70;;;;;;5024504;28;20093;-62
2022/05/14 06:05:12;;;;;;;34.60;7.25;;;20.20;79.30;;;;;;5022061;28;20832;-62
2022/05/14 06:07:39;;;;;;;27.45;6.45;;;20.20;78.70;;;;;;5023619;28;20158;-62
2022/05/14 06:10:05;;;;;;;25.80;6.80;;;20.20;78.70;;;;;;5040628;28;20091;-61
2022/05/14 06:12:31;;;;;;;22.27;6.18;;;20.20;78.50;;;;;;5038224;28;20032;-62
2022/05/14 06:14:56;;;;;;;17.70;5.88;;;20.20;78.50;;;;;;5039584;28;20032;-62
2022/05/14 06:17:22;;;;;;;17.02;5.72;;;20.20;78.40;;;;;;5021063;28;20025;-62
2022/05/14 06:19:48;;;;;;;24.58;5.82;;;20.10;78.50;;;;;;5020901;28;20033;-63
2022/05/14 06:22:13;;;;;;;27.40;6.53;;;20.20;78.60;;;;;;5040010;28;20036;-62
2022/05/14 06:24:39;;;;;;;15.65;5.93;;;20.10;78.50;;;;;;5037945;28;20033;-62
2022/05/14 06:27:05;;;;;;;18.63;5.90;;;20.10;78.60;;;;;;5038900;28;20017;-61
2022/05/14 06:29:31;;;;;;;17.98;5.97;;;20.20;78.70;;;;;;5037860;28;20425;-63
2022/05/14 06:31:57;;;;;;;19.00;6.05;;;20.10;78.60;;;;;;5036969;28;20489;-63
2022/05/14 06:34:23;;;;;;;18.98;5.68;;;20.10;78.60;;;;;;5040400;28;20148;-62
2022/05/14 06:36:49;;;;;;;20.35;5.60;;;20.10;78.60;;;;;;5041354;28;20357;-62
2022/05/14 06:39:15;;;;;;;14.23;5.43;;;20.10;78.60;;;;;;5038437;28;20579;-61
2022/05/14 06:41:40;;;;;;;17.20;5.45;;;20.10;78.60;;;;;;5036063;28;20113;-62
2022/05/14 06:44:07;;;;;;;17.30;5.60;;;20.10;78.60;;;;;;5038105;28;20039;-62
2022/05/14 06:46:33;;;;;;;19.48;4.95;;;20.00;78.50;;;;;;5021501;28;20043;-63
2022/05/14 06:48:59;;;;;;;21.88;5.88;;;20.00;78.50;;;;;;5039769;28;20483;-61
2022/05/14 06:51:25;;;;;;;15.35;5.18;;;20.00;78.50;;;;;;5034270;28;20131;-62
2022/05/14 06:53:51;;;;;;;15.30;5.20;;;20.10;78.50;;;;;;5020403;28;20029;-62
2022/05/14 06:56:17;;;;;;;21.75;5.57;;;20.00;78.50;;;;;;5037547;28;20115;-62
2022/05/14 06:58:43;;;;;;;12.60;4.20;;;20.10;78.50;;;;;;5021493;28;20117;-62
2022/05/14 07:01:08;;;;;;;12.10;4.60;;;20.10;78.50;;;;;;5036409;28;20098;-62
2022/05/14 07:09:11;;;;;;;9.32;5.03;;;19.90;78.20;;;;;;5038550;28;20040;-63
2022/05/14 07:11:37;;;;;;;19.95;5.18;;;20.00;78.40;;;;;;5035865;28;20172;-62
2022/05/14 07:14:03;;;;;;;11.43;4.95;;;20.00;78.40;;;;;;5039926;28;20441;-62
2022/05/14 07:16:28;;;;;;;13.05;4.80;;;20.00;78.40;;;;;;5035422;28;20049;-62
2022/05/14 07:18:54;;;;;;;12.77;4.53;;;20.10;78.50;;;;;;5038382;28;20028;-62
2022/05/14 07:21:19;;;;;;;13.68;4.60;;;20.10;78.30;;;;;;5038791;28;20369;-63
2022/05/14 07:23:45;;;;;;;15.93;5.28;;;20.00;78.30;;;;;;5038143;28;20520;-62
2022/05/14 07:26:10;;;;;;;16.00;4.60;;;20.10;78.30;;;;;;5035007;28;20052;-62
2022/05/14 07:28:36;;;;;;;9.07;4.03;;;20.10;78.30;;;;;;5034603;28;20068;-62
2022/05/14 07:31:02;;;;;;;8.50;4.20;;;20.10;78.30;;;;;;5036007;28;20056;-62
2022/05/14 07:33:31;;;;;;;13.13;4.32;;;20.00;78.20;;;;;;5031975;28;20593;-63
2022/05/14 07:35:58;;;;;;;12.55;4.57;;;20.00;78.30;;;;;;5017261;28;20136;-62
2022/05/14 07:38:23;;;;;;;10.23;4.32;;;20.00;78.40;;;;;;5036258;28;20088;-62
2022/05/14 07:40:49;;;;;;;12.40;4.65;;;20.00;78.40;;;;;;5039873;28;20429;-62
2022/05/14 07:43:17;;;;;;;10.13;4.45;;;20.00;78.50;;;;;;5032788;28;20025;-62
2022/05/14 07:45:44;;;;;;;12.25;4.68;;;20.00;78.70;;;;;;5031811;28;20254;-63
2022/05/14 07:48:13;;;;;;;11.13;4.10;;;20.00;78.80;;;;;;5003569;28;20832;-62
2022/05/14 07:50:39;;;;;;;12.68;4.70;;;20.00;78.80;;;;;;5033736;28;20040;-62
2022/05/14 07:53:05;;;;;;;7.10;4.03;;;20.00;78.90;;;;;;5036370;28;20029;-62
2022/05/14 07:55:33;;;;;;;9.05;4.28;;;20.00;79.00;;;;;;5004443;28;20116;-62
2022/05/14 07:57:58;;;;;;;9.35;4.13;;;20.00;79.10;;;;;;5037526;28;20029;-62
2022/05/14 08:00:25;;;;;;;9.40;4.18;;;20.00;79.10;;;;;;5035574;28;20070;-62
2022/05/14 08:02:50;;;;;;;8.85;4.45;;;20.00;79.20;;;;;;5032431;28;20048;-61
2022/05/14 08:05:20;;;;;;;9.25;4.10;;;20.00;79.40;;;;;;5014785;28;20112;-63
2022/05/14 08:07:45;;;;;;;8.90;4.47;;;20.00;79.60;;;;;;5034754;28;20116;-62
2022/05/14 08:10:13;;;;;;;11.35;4.82;;;20.00;80.00;;;;;;5030319;28;21189;-62
2022/05/14 08:12:40;;;;;;;21.67;5.57;;;20.00;80.10;;;;;;5016073;28;20105;-62
2022/05/14 08:15:06;;;;;;;12.55;5.65;;;19.90;80.30;;;;;;5015256;28;20056;-63
2022/05/14 08:17:32;;;;;;;22.92;5.65;;;19.90;80.40;;;;;;5024317;28;20022;-63
2022/05/14 08:19:57;;;;;;;21.40;5.95;;;20.00;80.60;;;;;;5033968;28;20029;-63
2022/05/14 08:25:07;;;;;;;15.43;5.30;;;20.00;80.50;;;;;;5026825;28;20033;-61
2022/05/14 08:27:44;;;;;;;30.10;7.32;;;20.00;80.50;;;;;;5028202;28;20030;-61
2022/05/14 08:30:14;;;;;;;35.95;8.30;;;20.00;81.00;;;;;;5033423;28;20041;-63
2022/05/14 08:32:40;;;;;;;38.67;7.38;;;20.00;81.40;;;;;;5019861;28;20473;-63
2022/05/14 08:35:05;;;;;;;56.53;10.07;;;20.00;81.70;;;;;;5038351;28;20047;-63
2022/05/14 08:37:31;;;;;;;70.82;10.60;;;20.00;81.20;;;;;;5042605;28;20036;-63
2022/05/14 08:39:56;;;;;;;110.55;14.10;;;20.10;81.30;;;;;;5038959;28;20122;-62
2022/05/14 08:42:22;;;;;;;104.07;13.40;;;20.10;81.80;;;;;;5034288;28;20129;-62
2022/05/14 08:44:47;;;;;;;288.70;33.90;;;20.10;81.90;;;;;;5036189;28;20029;-62
2022/05/14 08:47:34;;;;;;;85.25;12.27;;;20.10;82.00;;;;;;5035275;28;20485;-61
2022/05/14 08:50:00;;;;;;;94.15;12.45;;;20.10;82.70;;;;;;5019733;28;20136;-62
2022/05/14 08:52:26;;;;;;;102.90;14.35;;;20.10;82.70;;;;;;5021093;28;20047;-62
2022/05/14 08:55:04;;;;;;;66.18;10.85;;;20.10;82.80;;;;;;5038596;28;20060;-61
2022/05/14 08:57:49;;;;;;;93.20;13.93;;;20.20;83.40;;;;;;5037517;28;20017;-61
2022/05/14 09:00:15;;;;;;;73.45;11.77;;;20.20;83.50;;;;;;5020049;28;20075;-62
2022/05/14 09:02:43;;;;;;;88.47;13.05;;;20.20;83.30;;;;;;5030907;28;20034;-61
2022/05/14 09:05:11;;;;;;;104.78;13.98;;;20.30;83.60;;;;;;5037122;28;20082;-63
2022/05/14 09:07:37;;;;;;;79.47;12.85;;;20.20;83.30;;;;;;5020125;28;20021;-62
2022/05/14 09:10:08;;;;;;;97.65;14.50;;;20.20;83.20;;;;;;5035887;28;20036;-63
2022/05/14 09:12:35;;;;;;;113.47;15.02;;;20.30;83.30;;;;;;5021861;28;20025;-62
2022/05/14 09:15:10;;;;;;;65.18;11.68;;;20.30;83.20;;;;;;5037224;28;20093;-62
2022/05/14 09:17:35;;;;;;;79.00;14.43;;;20.30;83.00;;;;;;5005069;28;20184;-62
2022/05/14 09:20:01;;;;;;;72.82;14.38;;;20.30;82.90;;;;;;5034701;28;20120;-62
2022/05/14 09:22:28;;;;;;;101.40;14.32;;;20.30;83.00;;;;;;5014432;28;20080;-62
2022/05/14 09:24:57;;;;;;;89.72;13.75;;;20.40;83.10;;;;;;5030150;28;20029;-63
2022/05/14 09:27:27;;;;;;;112.68;13.75;;;20.40;83.00;;;;;;5036248;28;20035;-63
2022/05/14 09:30:04;;;;;;;77.68;12.68;;;20.40;82.90;;;;;;5033263;28;20075;-62
2022/05/14 09:32:32;;;;;;;82.75;13.52;;;20.40;82.90;;;;;;5016358;28;20029;-62
2022/05/14 09:35:06;;;;;;;88.95;13.88;;;20.40;83.00;;;;;;5033753;28;20051;-63
2022/05/14 09:37:31;;;;;;;67.15;12.13;;;20.50;82.90;;;;;;5017653;28;20025;-61
2022/05/14 09:39:58;;;;;;;100.80;13.30;;;20.50;83.00;;;;;;5030182;28;20036;-62
2022/05/14 09:42:32;;;;;;;85.50;13.50;;;20.50;82.70;;;;;;5021099;28;20036;-62
2022/05/14 09:44:57;;;;;;;84.35;13.98;;;20.50;82.60;;;;;;5018975;28;20190;-62
2022/05/14 09:47:30;;;;;;;68.78;11.90;;;20.40;82.30;;;;;;5016186;28;20174;-62
2022/05/14 09:50:23;;;;;;;79.80;12.20;;;20.60;82.30;;;;;;5036339;28;20551;-63
2022/05/14 09:53:00;;;;;;;78.63;12.55;;;20.70;82.50;;;;;;5033095;28;20215;-62
2022/05/14 09:55:56;;;;;;;75.57;13.15;;;20.70;82.00;;;;;;5037824;28;20124;-62
2022/05/14 09:58:44;;;;;;;85.40;14.63;;;20.70;81.90;;;;;;5019679;28;20578;-62
2022/05/14 10:01:22;;;;;;;87.03;14.13;;;20.70;81.90;;;;;;5036893;28;20400;-63
2022/05/14 10:03:54;;;;;;;85.82;14.07;;;20.80;81.60;;;;;;5021261;28;20029;-61
2022/05/14 10:06:24;;;;;;;73.38;12.35;;;20.80;81.50;;;;;;5037898;28;20052;-61
2022/05/14 10:08:53;;;;;;;95.53;13.70;;;21.00;81.40;;;;;;5020597;28;20099;-62
2022/05/14 10:11:33;;;;;;;99.80;13.30;;;20.80;81.00;;;;;;5034577;28;20108;-62
2022/05/14 10:14:14;;;;;;;86.28;12.68;;;20.90;81.00;;;;;;5037415;28;20525;-62
2022/05/14 10:16:58;;;;;;;86.05;13.55;;;20.90;80.90;;;;;;5037213;28;20081;-62
2022/05/14 10:19:56;;;;;;;104.47;12.73;;;20.90;81.20;;;;;;5034390;28;20426;-63
2022/05/14 10:26:44;;;;;;;111.50;14.52;;;21.00;81.10;;;;;;5036957;28;20056;-63
2022/05/14 10:28:34;;;;;;;130.98;15.23;;;21.10;80.10;;;;;;5020803;28;20048;-62
2022/05/14 10:31:10;;;;;;;85.05;12.95;;;21.10;79.90;;;;;;5038452;28;20433;-63
2022/05/14 10:33:36;;;;;;;50.17;9.88;;;21.20;79.60;;;;;;5033734;28;20049;-62
2022/05/14 10:36:26;;;;;;;59.53;10.27;;;21.20;79.10;;;;;;5038491;28;20041;-61
2022/05/14 10:38:56;;;;;;;42.83;10.15;;;21.20;79.00;;;;;;5034034;28;20057;-62
2022/05/14 10:41:45;;;;;;;59.03;10.70;;;21.30;78.80;;;;;;5019809;28;20116;-63
2022/05/14 10:44:29;;;;;;;49.05;8.20;;;21.30;78.50;;;;;;5023626;28;20762;-61
2022/05/14 10:46:54;;;;;;;47.28;8.40;;;21.40;78.50;;;;;;5034380;28;20995;-61
2022/05/14 10:49:48;;;;;;;52.67;9.68;;;21.40;78.00;;;;;;5019435;28;20041;-62
2022/05/14 10:52:15;;;;;;;58.95;8.82;;;21.50;78.60;;;;;;5016873;28;20481;-62
2022/05/14 10:54:41;;;;;;;42.83;8.60;;;21.60;77.80;;;;;;5033518;28;20029;-62
2022/05/14 10:57:13;;;;;;;63.83;9.23;;;21.60;77.40;;;;;;5018850;28;20079;-63
2022/05/14 10:59:47;;;;;;;72.25;10.05;;;21.60;77.10;;;;;;5027249;28;20017;-62
2022/05/14 11:02:15;;;;;;;109.25;14.85;;;21.50;76.70;;;;;;5024121;28;20036;-62
2022/05/14 11:04:42;;;;;;;86.40;12.88;;;21.70;77.10;;;;;;5036815;28;20120;-62
2022/05/14 11:07:09;;;;;;;114.13;15.60;;;21.90;76.60;;;;;;5031530;28;20426;-63
2022/05/14 11:09:48;;;;;;;74.13;10.57;;;21.90;75.90;;;;;;5020787;28;20461;-63
2022/05/14 11:12:18;;;;;;;78.00;10.60;;;22.00;75.80;;;;;;5032419;28;20072;-62
2022/05/14 11:14:47;;;;;;;66.57;10.80;;;22.00;75.50;;;;;;5038888;28;21048;-62
2022/05/14 11:17:27;;;;;;;51.65;9.65;;;22.10;75.30;;;;;;5034467;28;20131;-63
2022/05/14 11:20:13;;;;;;;39.80;9.05;;;22.20;74.90;;;;;;5037930;28;20139;-61
2022/05/14 11:22:50;;;;;;;39.80;8.23;;;22.20;74.70;;;;;;5035577;28;20041;-62
2022/05/14 11:25:24;;;;;;;54.83;9.45;;;22.30;74.00;;;;;;5018248;28;20524;-63
2022/05/14 11:28:18;;;;;;;42.42;7.93;;;22.40;73.80;;;;;;5027737;28;20305;-62
2022/05/14 11:30:47;;;;;;;48.42;8.60;;;22.50;73.50;;;;;;5035473;28;20092;-63
2022/05/14 11:33:22;;;;;;;38.60;7.47;;;22.60;73.10;;;;;;5014738;28;20040;-62
2022/05/14 11:35:48;;;;;;;49.92;7.35;;;22.70;72.60;;;;;;5037111;28;21219;-63
2022/05/14 11:38:35;;;;;;;53.00;8.98;;;22.70;72.20;;;;;;5038653;28;20473;-62
2022/05/14 11:41:01;;;;;;;29.05;6.65;;;22.90;72.40;;;;;;5033936;28;20095;-62
2022/05/14 11:43:36;;;;;;;78.50;9.85;;;22.90;71.80;;;;;;5040727;28;20057;-62
2022/05/14 11:46:14;;;;;;;72.22;8.88;;;23.00;71.60;;;;;;5038227;28;20029;-62
2022/05/14 11:49:15;;;;;;;70.35;10.38;;;23.10;71.60;;;;;;5036836;28;20381;-62
2022/05/14 11:51:52;;;;;;;85.03;11.65;;;23.20;71.20;;;;;;5040487;28;20093;-63
2022/05/14 11:54:50;;;;;;;62.22;9.52;;;23.30;70.80;;;;;;5040629;28;20106;-62
2022/05/14 11:57:27;;;;;;;77.15;11.80;;;23.40;70.60;;;;;;5028755;28;20033;-63
2022/05/14 11:59:54;;;;;;;54.72;9.50;;;23.50;70.20;;;;;;5036154;28;20053;-62
2022/05/14 12:02:25;;;;;;;52.63;9.02;;;23.50;69.60;;;;;;5039184;28;20100;-63
2022/05/14 12:04:53;;;;;;;48.33;7.93;;;23.60;69.10;;;;;;5040424;28;20093;-63
2022/05/14 12:07:38;;;;;;;63.25;9.27;;;23.70;68.80;;;;;;5009158;28;20465;-62
2022/05/14 12:10:22;;;;;;;59.67;8.02;;;23.80;68.80;;;;;;5038980;28;20082;-61
2022/05/14 12:13:23;;;;;;;35.30;6.80;;;23.80;68.20;;;;;;5038928;28;20024;-63
2022/05/14 12:15:54;;;;;;;52.38;7.40;;;23.90;67.60;;;;;;5023756;28;20032;-62
2022/05/14 12:18:20;;;;;;;32.20;6.10;;;24.00;67.20;;;;;;5021041;28;20116;-63
2022/05/14 12:20:53;;;;;;;30.10;6.35;;;24.00;67.00;;;;;;5038709;28;20045;-62
2022/05/14 12:23:18;;;;;;;48.38;8.07;;;24.00;66.50;;;;;;5019064;28;20025;-63
2022/05/14 12:25:48;;;;;;;32.80;6.85;;;24.10;66.60;;;;;;5038215;28;20043;-62
2022/05/14 12:28:27;;;;;;;43.35;7.07;;;24.10;66.30;;;;;;5003770;28;20081;-63
2022/05/14 12:33:39;;;;;;;34.65;6.47;;;24.10;65.50;;;;;;5021923;28;20159;-61
2022/05/14 12:36:05;;;;;;;28.67;5.57;;;24.20;65.10;;;;;;5035190;28;20056;-62
2022/05/14 12:38:35;;;;;;;28.42;5.43;;;24.20;64.80;;;;;;5030506;28;20361;-62
2022/05/14 12:41:01;;;;;;;29.67;6.40;;;24.20;64.70;;;;;;5002273;28;20478;-63
2022/05/14 12:43:26;;;;;;;46.72;6.28;;;24.30;64.80;;;;;;5036931;28;20029;-63
2022/05/14 12:46:19;;;;;;;41.08;6.00;;;24.40;64.50;;;;;;5021846;28;20120;-63
2022/05/14 12:48:47;;;;;;;45.03;5.90;;;24.40;64.30;;;;;;5036731;28;20044;-62
2022/05/14 12:51:21;;;;;;;62.50;7.32;;;24.40;64.00;;;;;;5034756;28;20045;-61
2022/05/14 12:53:46;;;;;;;53.08;7.93;;;24.40;64.30;;;;;;5037556;28;20029;-63
2022/05/14 12:56:12;;;;;;;41.88;6.82;;;24.50;63.80;;;;;;5039702;28;20033;-63
2022/05/14 12:58:39;;;;;;;56.25;7.90;;;24.50;63.50;;;;;;5020912;28;20384;-61
2022/05/14 13:01:05;;;;;;;40.15;5.47;;;24.50;63.60;;;;;;5016594;28;20052;-63
2022/05/14 13:04:09;;;;;;;46.30;7.30;;;24.60;62.80;;;;;;4995422;28;20898;-63